sensor_id;sensor_type;location;lat;lon;timestamp;pressure;altitude;pressure_sealevel;temperature;humidity
3590;BME280;1809;48.470;9.226;2022-07-31T00:00:35;97112.47;;;17.69;100.00
3590;BME280;1809;48.470;9.226;2022-07-31T00:03:01;97111.06;;;17.63;100.00
3590;BME280;1809;48.470;9.226;2022-07-31T00:05:26;97115.25;;;17.61;100.00
3590;BME280;1809;48.470;9.226;2022-07-31T00:07:53;97117.16;;;17.60;100.00
3590;BME280;1809;48.470;9.226;2022-07-31T00:10:18;97119.72;;;17.57;100.00
3590;BME280;1809;48.470;9.226;2022-07-31T00:12:44;97117.00;;;17.57;100.00
3590;BME280;1809;48.470;9.226;2022-07-31T00:15:10;97119.06;;;17.60;100.00
3590;BME280;1809;48.470;9.226;2022-07-31T00:17:37;97118.28;;;17.51;100.00
3590;BME280;1809;48.470;9.226;2022-07-31T00:20:03;97119.59;;;17.45;100.00
3590;BME280;1809;48.470;9.226;2022-07-31T00:22:29;97116.31;;;17.39;100.00
3590;BME280;1809;48.470;9.226;2022-07-31T00:24:54;97116.91;;;17.45;100.00
3590;BME280;1809;48.470;9.226;2022-07-31T00:27:20;97115.50;;;17.39;100.00
3590;BME280;1809;48.470;9.226;2022-07-31T00:29:45;97107.59;;;17.34;100.00
3590;BME280;1809;48.470;9.226;2022-07-31T00:32:11;97106.31;;;17.31;100.00
3590;BME280;1809;48.470;9.226;2022-07-31T00:34:37;97104.91;;;17.25;100.00
3590;BME280;1809;48.470;9.226;2022-07-31T00:37:02;97108.16;;;17.18;100.00
3590;BME280;1809;48.470;9.226;2022-07-31T00:39:27;97105.31;;;17.15;100.00
3590;BME280;1809;48.470;9.226;2022-07-31T00:41:55;97108.03;;;17.15;100.00
3590;BME280;1809;48.470;9.226;2022-07-31T00:44:20;97103.88;;;17.17;100.00
3590;BME280;1809;48.470;9.226;2022-07-31T00:46:45;97101.97;;;17.09;100.00
3590;BME280;1809;48.470;9.226;2022-07-31T00:49:11;97105.19;;;17.11;100.00
3590;BME280;1809;48.470;9.226;2022-07-31T00:51:38;97107.38;;;17.18;100.00
3590;BME280;1809;48.470;9.226;2022-07-31T00:54:04;97108.03;;;17.06;100.00
3590;BME280;1809;48.470;9.226;2022-07-31T00:56:30;97103.94;;;17.00;100.00
3590;BME280;1809;48.470;9.226;2022-07-31T00:58:55;97111.59;;;16.98;100.00
3590;BME280;1809;48.470;9.226;2022-07-31T01:01:20;97110.50;;;16.91;100.00
3590;BME280;1809;48.470;9.226;2022-07-31T01:03:47;97109.72;;;16.90;100.00
3590;BME280;1809;48.470;9.226;2022-07-31T01:06:13;97114.50;;;16.85;100.00
3590;BME280;1809;48.470;9.226;2022-07-31T01:08:38;97116.69;;;16.91;100.00
3590;BME280;1809;48.470;9.226;2022-07-31T01:11:08;97113.53;;;16.89;100.00
3590;BME280;1809;48.470;9.226;2022-07-31T01:13:46;97113.53;;;16.89;100.00
3590;BME280;1809;48.470;9.226;2022-07-31T01:16:13;97107.84;;;16.82;100.00
3590;BME280;1809;48.470;9.226;2022-07-31T01:18:39;97115.47;;;16.80;100.00
3590;BME280;1809;48.470;9.226;2022-07-31T01:21:08;97112.28;;;16.78;100.00
3590;BME280;1809;48.470;9.226;2022-07-31T01:26:46;97107.53;;;16.75;100.00
3590;BME280;1809;48.470;9.226;2022-07-31T01:29:26;97109.47;;;16.66;100.00
3590;BME280;1809;48.470;9.226;2022-07-31T01:34:32;97112.56;;;16.56;100.00
3590;BME280;1809;48.470;9.226;2022-07-31T01:37:22;97111.88;;;16.50;100.00
3590;BME280;1809;48.470;9.226;2022-07-31T01:40:00;97107.91;;;16.48;100.00
3590;BME280;1809;48.470;9.226;2022-07-31T01:42:26;97112.06;;;16.45;100.00
3590;BME280;1809;48.470;9.226;2022-07-31T01:44:56;97108.41;;;16.41;100.00
3590;BME280;1809;48.470;9.226;2022-07-31T01:47:22;97108.91;;;16.35;100.00
3590;BME280;1809;48.470;9.226;2022-07-31T01:49:50;97113.38;;;16.31;100.00
3590;BME280;1809;48.470;9.226;2022-07-31T01:52:18;97106.19;;;16.35;100.00
3590;BME280;1809;48.470;9.226;2022-07-31T01:54:45;97119.22;;;16.33;100.00
3590;BME280;1809;48.470;9.226;2022-07-31T01:57:12;97109.25;;;16.25;100.00
3590;BME280;1809;48.470;9.226;2022-07-31T01:59:40;97112.75;;;16.17;100.00
3590;BME280;1809;48.470;9.226;2022-07-31T02:02:06;97111.19;;;16.16;100.00
3590;BME280;1809;48.470;9.226;2022-07-31T02:04:32;97115.63;;;16.11;100.00
3590;BME280;1809;48.470;9.226;2022-07-31T02:07:00;97109.88;;;16.13;100.00
3590;BME280;1809;48.470;9.226;2022-07-31T02:09:28;97109.13;;;16.12;100.00
3590;BME280;1809;48.470;9.226;2022-07-31T02:11:55;97113.09;;;16.06;100.00
3590;BME280;1809;48.470;9.226;2022-07-31T02:14:23;97113.09;;;16.06;100.00
3590;BME280;1809;48.470;9.226;2022-07-31T02:16:48;97115.94;;;16.01;100.00
3590;BME280;1809;48.470;9.226;2022-07-31T02:19:14;97112.28;;;15.97;100.00
3590;BME280;1809;48.470;9.226;2022-07-31T02:21:41;97116.41;;;16.03;100.00
3590;BME280;1809;48.470;9.226;2022-07-31T02:24:07;97113.09;;;15.89;100.00
3590;BME280;1809;48.470;9.226;2022-07-31T02:26:33;97112.28;;;15.97;100.00
3590;BME280;1809;48.470;9.226;2022-07-31T02:29:01;97114.97;;;15.97;100.00
3590;BME280;1809;48.470;9.226;2022-07-31T02:31:29;97116.88;;;15.88;100.00
3590;BME280;1809;48.470;9.226;2022-07-31T02:33:56;97116.25;;;15.91;100.00
3590;BME280;1809;48.470;9.226;2022-07-31T02:36:22;97108.97;;;15.92;100.00
3590;BME280;1809;48.470;9.226;2022-07-31T02:38:49;97113.41;;;15.88;100.00
3590;BME280;1809;48.470;9.226;2022-07-31T02:41:16;97107.88;;;15.84;100.00
3590;BME280;1809;48.470;9.226;2022-07-31T02:43:43;97105.81;;;15.81;100.00
3590;BME280;1809;48.470;9.226;2022-07-31T02:46:09;97102.31;;;15.89;100.00
3590;BME280;1809;48.470;9.226;2022-07-31T02:48:36;97100.53;;;15.85;100.00
3590;BME280;1809;48.470;9.226;2022-07-31T02:51:02;97100.09;;;15.74;100.00
3590;BME280;1809;48.470;9.226;2022-07-31T02:53:28;97106.41;;;15.70;100.00
3590;BME280;1809;48.470;9.226;2022-07-31T02:55:55;97096.59;;;15.65;100.00
3590;BME280;1809;48.470;9.226;2022-07-31T02:58:20;97096.13;;;15.72;100.00
3590;BME280;1809;48.470;9.226;2022-07-31T03:00:46;97099.59;;;15.64;100.00
3590;BME280;1809;48.470;9.226;2022-07-31T03:03:11;97094.53;;;15.62;100.00
3590;BME280;1809;48.470;9.226;2022-07-31T03:05:37;97091.19;;;15.65;100.00
3590;BME280;1809;48.470;9.226;2022-07-31T03:08:02;97088.97;;;15.67;100.00
3590;BME280;1809;48.470;9.226;2022-07-31T03:10:28;97088.00;;;15.63;100.00
3590;BME280;1809;48.470;9.226;2022-07-31T03:12:54;97094.19;;;15.64;100.00
3590;BME280;1809;48.470;9.226;2022-07-31T03:15:22;97094.66;;;15.57;100.00
3590;BME280;1809;48.470;9.226;2022-07-31T03:17:50;97091.03;;;15.53;100.00
3590;BME280;1809;48.470;9.226;2022-07-31T03:20:16;97088.63;;;15.51;100.00
3590;BME280;1809;48.470;9.226;2022-07-31T03:22:42;97090.88;;;15.49;100.00
3590;BME280;1809;48.470;9.226;2022-07-31T03:25:09;97087.38;;;15.49;100.00
3590;BME280;1809;48.470;9.226;2022-07-31T03:27:35;97090.84;;;15.41;100.00
3590;BME280;1809;48.470;9.226;2022-07-31T03:30:01;97091.16;;;15.48;100.00
3590;BME280;1809;48.470;9.226;2022-07-31T03:32:26;97095.16;;;15.50;100.00
3590;BME280;1809;48.470;9.226;2022-07-31T03:34:52;97094.38;;;15.50;100.00
3590;BME280;1809;48.470;9.226;2022-07-31T03:37:17;97103.06;;;15.47;100.00
3590;BME280;1809;48.470;9.226;2022-07-31T03:39:42;97104.31;;;15.41;100.00
3590;BME280;1809;48.470;9.226;2022-07-31T03:42:08;97102.56;;;15.45;100.00
3590;BME280;1809;48.470;9.226;2022-07-31T03:44:35;97109.72;;;15.41;100.00
3590;BME280;1809;48.470;9.226;2022-07-31T03:47:01;97101.75;;;15.44;100.00
3590;BME280;1809;48.470;9.226;2022-07-31T03:49:26;97101.00;;;15.44;100.00
3590;BME280;1809;48.470;9.226;2022-07-31T03:51:52;97101.75;;;15.44;100.00
3590;BME280;1809;48.470;9.226;2022-07-31T03:54:18;97096.69;;;15.43;100.00
3590;BME280;1809;48.470;9.226;2022-07-31T03:56:46;97101.16;;;15.47;100.00
3590;BME280;1809;48.470;9.226;2022-07-31T03:59:13;97093.56;;;15.49;100.00
3590;BME280;1809;48.470;9.226;2022-07-31T04:01:40;97093.56;;;15.49;100.00
3590;BME280;1809;48.470;9.226;2022-07-31T04:04:05;97104.94;;;15.46;100.00
3590;BME280;1809;48.470;9.226;2022-07-31T04:06:31;97103.97;;;15.42;100.00
3590;BME280;1809;48.470;9.226;2022-07-31T04:08:56;97103.97;;;15.42;100.00
3590;BME280;1809;48.470;9.226;2022-07-31T04:11:21;97108.56;;;15.42;100.00
3590;BME280;1809;48.470;9.226;2022-07-31T04:13:47;97107.94;;;15.45;100.00
3590;BME280;1809;48.470;9.226;2022-07-31T04:16:12;97107.34;;;15.48;100.00
3590;BME280;1809;48.470;9.226;2022-07-31T04:18:37;97114.16;;;15.54;100.00
3590;BME280;1809;48.470;9.226;2022-07-31T04:21:03;97110.38;;;15.64;100.00
3590;BME280;1809;48.470;9.226;2022-07-31T04:23:28;97113.41;;;15.79;100.00
3590;BME280;1809;48.470;9.226;2022-07-31T04:25:53;97111.81;;;15.95;100.00
3590;BME280;1809;48.470;9.226;2022-07-31T04:28:19;97109.09;;;16.04;100.00
3590;BME280;1809;48.470;9.226;2022-07-31T04:30:44;97107.66;;;16.24;100.00
3590;BME280;1809;48.470;9.226;2022-07-31T04:33:10;97108.78;;;16.86;100.00
3590;BME280;1809;48.470;9.226;2022-07-31T04:35:35;97115.53;;;17.01;100.00
3590;BME280;1809;48.470;9.226;2022-07-31T04:38:00;97122.81;;;17.88;100.00
3590;BME280;1809;48.470;9.226;2022-07-31T04:40:26;97124.22;;;18.93;100.00
3590;BME280;1809;48.470;9.226;2022-07-31T04:42:54;97119.66;;;19.81;100.00
3590;BME280;1809;48.470;9.226;2022-07-31T04:45:20;97122.38;;;20.65;100.00
3590;BME280;1809;48.470;9.226;2022-07-31T04:47:45;97121.59;;;21.58;100.00
3590;BME280;1809;48.470;9.226;2022-07-31T04:50:10;97123.47;;;22.46;100.00
3590;BME280;1809;48.470;9.226;2022-07-31T04:52:36;97124.72;;;22.91;100.00
3590;BME280;1809;48.470;9.226;2022-07-31T04:55:02;97127.94;;;23.23;100.00
3590;BME280;1809;48.470;9.226;2022-07-31T04:57:27;97132.75;;;22.65;100.00
3590;BME280;1809;48.470;9.226;2022-07-31T04:59:52;97133.59;;;22.08;100.00
3590;BME280;1809;48.470;9.226;2022-07-31T05:02:18;97124.03;;;21.28;100.00
3590;BME280;1809;48.470;9.226;2022-07-31T05:04:43;97123.63;;;21.80;100.00
3590;BME280;1809;48.470;9.226;2022-07-31T05:07:09;97128.72;;;22.97;100.00
3590;BME280;1809;48.470;9.226;2022-07-31T05:09:34;97126.63;;;23.88;100.00
3590;BME280;1809;48.470;9.226;2022-07-31T05:12:00;97129.16;;;25.04;100.00
3590;BME280;1809;48.470;9.226;2022-07-31T05:14:26;97135.69;;;24.92;100.00
3590;BME280;1809;48.470;9.226;2022-07-31T05:16:51;97130.88;;;24.12;100.00
3590;BME280;1809;48.470;9.226;2022-07-31T05:19:17;97130.31;;;23.24;100.00
3590;BME280;1809;48.470;9.226;2022-07-31T05:21:43;97122.34;;;22.47;100.00
3590;BME280;1809;48.470;9.226;2022-07-31T05:24:09;97130.75;;;21.85;100.00
3590;BME280;1809;48.470;9.226;2022-07-31T05:26:35;97127.38;;;21.72;100.00
3590;BME280;1809;48.470;9.226;2022-07-31T05:29:00;97125.00;;;22.86;100.00
3590;BME280;1809;48.470;9.226;2022-07-31T05:31:27;97136.66;;;23.81;100.00
3590;BME280;1809;48.470;9.226;2022-07-31T05:33:53;97123.13;;;23.88;100.00
3590;BME280;1809;48.470;9.226;2022-07-31T05:36:19;97120.84;;;24.23;100.00
3590;BME280;1809;48.470;9.226;2022-07-31T05:38:45;97117.06;;;24.31;100.00
3590;BME280;1809;48.470;9.226;2022-07-31T05:41:10;97122.00;;;23.92;100.00
3590;BME280;1809;48.470;9.226;2022-07-31T05:43:36;97128.88;;;23.83;100.00
3590;BME280;1809;48.470;9.226;2022-07-31T05:46:02;97118.91;;;23.94;100.00
3590;BME280;1809;48.470;9.226;2022-07-31T05:48:29;97124.16;;;25.13;100.00
3590;BME280;1809;48.470;9.226;2022-07-31T05:50:55;97125.03;;;26.68;100.00
3590;BME280;1809;48.470;9.226;2022-07-31T05:53:20;97128.28;;;27.34;100.00
3590;BME280;1809;48.470;9.226;2022-07-31T05:55:48;97137.75;;;27.58;100.00
3590;BME280;1809;48.470;9.226;2022-07-31T05:58:15;97136.03;;;26.68;100.00
3590;BME280;1809;48.470;9.226;2022-07-31T06:00:41;97129.88;;;26.06;100.00
3590;BME280;1809;48.470;9.226;2022-07-31T06:03:07;97134.75;;;25.65;100.00
3590;BME280;1809;48.470;9.226;2022-07-31T06:05:33;97137.50;;;25.18;100.00
3590;BME280;1809;48.470;9.226;2022-07-31T06:07:59;97137.50;;;25.18;100.00
3590;BME280;1809;48.470;9.226;2022-07-31T06:10:26;97141.53;;;24.91;100.00
3590;BME280;1809;48.470;9.226;2022-07-31T06:12:52;97143.66;;;25.08;100.00
3590;BME280;1809;48.470;9.226;2022-07-31T06:15:17;97145.22;;;25.05;100.00
3590;BME280;1809;48.470;9.226;2022-07-31T06:17:43;97134.00;;;24.81;100.00
3590;BME280;1809;48.470;9.226;2022-07-31T06:20:09;97140.97;;;24.75;100.00
3590;BME280;1809;48.470;9.226;2022-07-31T06:22:35;97133.63;;;24.45;100.00
3590;BME280;1809;48.470;9.226;2022-07-31T06:25:01;97131.38;;;24.54;100.00
3590;BME280;1809;48.470;9.226;2022-07-31T06:27:26;97136.75;;;24.47;100.00
3590;BME280;1809;48.470;9.226;2022-07-31T06:29:52;97146.75;;;24.33;100.00
3590;BME280;1809;48.470;9.226;2022-07-31T06:32:17;97142.53;;;24.09;100.00
3590;BME280;1809;48.470;9.226;2022-07-31T06:34:44;97150.50;;;24.21;100.00
3590;BME280;1809;48.470;9.226;2022-07-31T06:37:09;97147.28;;;24.12;100.00
3590;BME280;1809;48.470;9.226;2022-07-31T06:39:34;97146.63;;;24.22;100.00
3590;BME280;1809;48.470;9.226;2022-07-31T06:42:00;97147.16;;;24.35;100.00
3590;BME280;1809;48.470;9.226;2022-07-31T06:44:25;97156.16;;;24.72;100.00
3590;BME280;1809;48.470;9.226;2022-07-31T06:46:51;97149.19;;;24.75;100.00
3590;BME280;1809;48.470;9.226;2022-07-31T06:49:17;97145.63;;;24.37;100.00
3590;BME280;1809;48.470;9.226;2022-07-31T06:51:42;97149.03;;;24.27;100.00
3590;BME280;1809;48.470;9.226;2022-07-31T06:54:10;97151.16;;;24.11;100.00
3590;BME280;1809;48.470;9.226;2022-07-31T06:56:37;97149.38;;;23.96;100.00
3590;BME280;1809;48.470;9.226;2022-07-31T06:59:03;97160.19;;;23.89;100.00
3590;BME280;1809;48.470;9.226;2022-07-31T07:01:29;97158.63;;;23.88;100.00
3590;BME280;1809;48.470;9.226;2022-07-31T07:03:55;97155.63;;;23.96;100.00
3590;BME280;1809;48.470;9.226;2022-07-31T07:06:20;97154.00;;;23.92;100.00
3590;BME280;1809;48.470;9.226;2022-07-31T07:08:45;97150.94;;;23.97;100.00
3590;BME280;1809;48.470;9.226;2022-07-31T07:11:11;97149.88;;;23.75;100.00
3590;BME280;1809;48.470;9.226;2022-07-31T07:13:36;97145.19;;;24.35;100.00
3590;BME280;1809;48.470;9.226;2022-07-31T07:16:02;97133.56;;;24.42;100.00
3590;BME280;1809;48.470;9.226;2022-07-31T07:18:27;97135.91;;;24.77;100.00
3590;BME280;1809;48.470;9.226;2022-07-31T07:20:53;97137.06;;;24.76;100.00
3590;BME280;1809;48.470;9.226;2022-07-31T07:23:19;97141.53;;;24.91;100.00
3590;BME280;1809;48.470;9.226;2022-07-31T07:25:45;97139.31;;;25.00;100.00
3590;BME280;1809;48.470;9.226;2022-07-31T07:28:10;97144.75;;;25.47;100.00
3590;BME280;1809;48.470;9.226;2022-07-31T07:30:36;97143.28;;;25.53;100.00
3590;BME280;1809;48.470;9.226;2022-07-31T07:33:02;97142.13;;;25.54;100.00
3590;BME280;1809;48.470;9.226;2022-07-31T07:35:29;97147.34;;;25.77;100.00
3590;BME280;1809;48.470;9.226;2022-07-31T07:37:55;97146.22;;;25.85;100.00
3590;BME280;1809;48.470;9.226;2022-07-31T07:40:21;97144.28;;;25.86;100.00
3590;BME280;1809;48.470;9.226;2022-07-31T07:42:47;97146.00;;;25.53;100.00
3590;BME280;1809;48.470;9.226;2022-07-31T07:45:12;97143.47;;;25.82;100.00
3590;BME280;1809;48.470;9.226;2022-07-31T07:47:38;97134.41;;;26.46;100.00
3590;BME280;1809;48.470;9.226;2022-07-31T07:50:05;97136.94;;;27.29;100.00
3590;BME280;1809;48.470;9.226;2022-07-31T07:52:31;97130.44;;;28.49;96.38
3590;BME280;1809;48.470;9.226;2022-07-31T07:54:57;97140.19;;;29.29;87.80
3590;BME280;1809;48.470;9.226;2022-07-31T07:57:23;97123.31;;;29.68;80.83
3590;BME280;1809;48.470;9.226;2022-07-31T07:59:48;97133.72;;;29.95;74.66
3590;BME280;1809;48.470;9.226;2022-07-31T08:02:14;97125.91;;;29.42;79.07
3590;BME280;1809;48.470;9.226;2022-07-31T08:04:40;97127.56;;;28.73;85.50
3590;BME280;1809;48.470;9.226;2022-07-31T08:07:06;97128.88;;;28.37;86.66
3590;BME280;1809;48.470;9.226;2022-07-31T08:09:32;97128.97;;;28.23;81.41
3590;BME280;1809;48.470;9.226;2022-07-31T08:11:58;97127.81;;;27.99;84.08
3590;BME280;1809;48.470;9.226;2022-07-31T08:14:23;97126.63;;;28.04;83.58
3590;BME280;1809;48.470;9.226;2022-07-31T08:16:50;97125.91;;;27.75;87.29
3590;BME280;1809;48.470;9.226;2022-07-31T08:19:15;97124.38;;;27.42;90.86
3590;BME280;1809;48.470;9.226;2022-07-31T08:21:40;97125.91;;;27.78;92.44
3590;BME280;1809;48.470;9.226;2022-07-31T08:24:06;97120.75;;;28.02;94.55
3590;BME280;1809;48.470;9.226;2022-07-31T08:26:31;97123.47;;;28.23;84.86
3590;BME280;1809;48.470;9.226;2022-07-31T08:29:15;97124.97;;;28.31;84.17
3590;BME280;1809;48.470;9.226;2022-07-31T08:31:41;97122.88;;;28.60;84.00
3590;BME280;1809;48.470;9.226;2022-07-31T08:34:06;97123.72;;;28.53;79.82
3590;BME280;1809;48.470;9.226;2022-07-31T08:36:32;97124.81;;;28.73;84.60
3590;BME280;1809;48.470;9.226;2022-07-31T08:38:57;97123.22;;;28.79;83.27
3590;BME280;1809;48.470;9.226;2022-07-31T08:41:23;97128.78;;;28.58;83.29
3590;BME280;1809;48.470;9.226;2022-07-31T08:43:48;97135.72;;;28.88;82.79
3590;BME280;1809;48.470;9.226;2022-07-31T08:46:14;97131.00;;;28.88;83.08
3590;BME280;1809;48.470;9.226;2022-07-31T08:48:41;97133.69;;;28.19;83.78
3590;BME280;1809;48.470;9.226;2022-07-31T08:51:10;97133.03;;;27.48;95.46
3590;BME280;1809;48.470;9.226;2022-07-31T08:53:41;97132.22;;;27.37;100.00
3590;BME280;1809;48.470;9.226;2022-07-31T08:56:07;97136.53;;;27.13;98.64
3590;BME280;1809;48.470;9.226;2022-07-31T08:58:33;97131.81;;;26.96;100.00
3590;BME280;1809;48.470;9.226;2022-07-31T09:00:58;97133.78;;;27.34;97.38
3590;BME280;1809;48.470;9.226;2022-07-31T09:03:24;97129.88;;;27.42;100.00
3590;BME280;1809;48.470;9.226;2022-07-31T09:05:50;97132.94;;;27.94;88.30
3590;BME280;1809;48.470;9.226;2022-07-31T09:08:16;97121.22;;;27.68;86.80
3590;BME280;1809;48.470;9.226;2022-07-31T09:10:41;97125.03;;;28.20;87.15
3590;BME280;1809;48.470;9.226;2022-07-31T09:13:16;97119.47;;;28.35;82.90
3590;BME280;1809;48.470;9.226;2022-07-31T09:15:42;97128.97;;;28.23;82.33
3590;BME280;1809;48.470;9.226;2022-07-31T09:18:19;97121.94;;;28.04;83.44
3590;BME280;1809;48.470;9.226;2022-07-31T09:21:06;97124.31;;;27.92;85.03
3590;BME280;1809;48.470;9.226;2022-07-31T09:23:31;97124.31;;;27.88;87.91
3590;BME280;1809;48.470;9.226;2022-07-31T09:25:59;97124.31;;;27.99;92.69
3590;BME280;1809;48.470;9.226;2022-07-31T09:31:01;97136.13;;;27.78;88.38
3590;BME280;1809;48.470;9.226;2022-07-31T09:33:28;97129.50;;;27.54;91.62
3590;BME280;1809;48.470;9.226;2022-07-31T09:35:55;97126.28;;;27.81;89.15
3590;BME280;1809;48.470;9.226;2022-07-31T09:38:37;97124.38;;;27.70;87.75
3590;BME280;1809;48.470;9.226;2022-07-31T09:41:27;97122.78;;;27.73;89.68
3590;BME280;1809;48.470;9.226;2022-07-31T09:44:00;97117.28;;;27.76;88.21
3590;BME280;1809;48.470;9.226;2022-07-31T09:46:38;97114.09;;;27.96;87.19
3590;BME280;1809;48.470;9.226;2022-07-31T09:49:03;97116.41;;;28.15;89.65
3590;BME280;1809;48.470;9.226;2022-07-31T09:51:43;97114.50;;;27.91;81.61
3590;BME280;1809;48.470;9.226;2022-07-31T09:54:20;97100.66;;;28.26;80.78
3590;BME280;1809;48.470;9.226;2022-07-31T09:56:46;97097.44;;;28.38;79.98
3590;BME280;1809;48.470;9.226;2022-07-31T09:59:13;97097.47;;;28.31;78.87
3590;BME280;1809;48.470;9.226;2022-07-31T10:01:39;97098.91;;;28.67;74.10
3590;BME280;1809;48.470;9.226;2022-07-31T10:04:05;97088.97;;;28.80;69.01
3590;BME280;1809;48.470;9.226;2022-07-31T10:06:33;97088.53;;;28.86;70.84
3590;BME280;1809;48.470;9.226;2022-07-31T10:09:02;97083.16;;;28.64;74.84
3590;BME280;1809;48.470;9.226;2022-07-31T10:11:29;97077.84;;;28.29;76.34
3590;BME280;1809;48.470;9.226;2022-07-31T10:13:59;97071.09;;;28.37;75.47
3590;BME280;1809;48.470;9.226;2022-07-31T10:16:26;97079.06;;;28.87;76.99
3590;BME280;1809;48.470;9.226;2022-07-31T10:18:59;97072.66;;;29.07;71.70
3590;BME280;1809;48.470;9.226;2022-07-31T10:21:37;97070.00;;;28.90;69.10
3590;BME280;1809;48.470;9.226;2022-07-31T10:24:04;97067.31;;;28.83;70.66
3590;BME280;1809;48.470;9.226;2022-07-31T10:26:32;97068.78;;;28.98;70.04
3590;BME280;1809;48.470;9.226;2022-07-31T10:28:58;97064.91;;;28.88;71.58
3590;BME280;1809;48.470;9.226;2022-07-31T10:31:24;97065.38;;;28.83;71.04
3590;BME280;1809;48.470;9.226;2022-07-31T10:33:49;97062.97;;;28.89;72.00
3590;BME280;1809;48.470;9.226;2022-07-31T10:36:34;97071.53;;;29.46;72.24
3590;BME280;1809;48.470;9.226;2022-07-31T10:39:04;97075.53;;;30.16;71.62
3590;BME280;1809;48.470;9.226;2022-07-31T10:41:49;97062.91;;;30.15;65.02
3590;BME280;1809;48.470;9.226;2022-07-31T10:44:54;97060.66;;;30.06;62.46
3590;BME280;1809;48.470;9.226;2022-07-31T10:47:18;97052.00;;;30.65;61.07
3590;BME280;1809;48.470;9.226;2022-07-31T10:49:46;97046.63;;;30.24;65.17
3590;BME280;1809;48.470;9.226;2022-07-31T10:52:14;97039.19;;;30.51;62.17
3590;BME280;1809;48.470;9.226;2022-07-31T10:54:50;97044.41;;;30.72;57.36
3590;BME280;1809;48.470;9.226;2022-07-31T10:57:22;97045.75;;;30.61;57.74
3590;BME280;1809;48.470;9.226;2022-07-31T10:59:48;97042.72;;;29.91;59.13
3590;BME280;1809;48.470;9.226;2022-07-31T11:02:29;97039.88;;;30.28;62.76
3590;BME280;1809;48.470;9.226;2022-07-31T11:05:12;97046.97;;;29.96;63.39
3590;BME280;1809;48.470;9.226;2022-07-31T11:07:39;97047.44;;;29.91;65.84
3590;BME280;1809;48.470;9.226;2022-07-31T11:12:37;97034.59;;;30.11;65.46
3590;BME280;1809;48.470;9.226;2022-07-31T11:15:03;97040.47;;;30.43;65.68
3590;BME280;1809;48.470;9.226;2022-07-31T11:17:33;97041.50;;;30.79;67.63
3590;BME280;1809;48.470;9.226;2022-07-31T11:20:00;97031.06;;;31.17;58.41
3590;BME280;1809;48.470;9.226;2022-07-31T11:22:27;97027.66;;;31.10;57.13
3590;BME280;1809;48.470;9.226;2022-07-31T11:24:53;97026.06;;;30.85;59.29
3590;BME280;1809;48.470;9.226;2022-07-31T11:27:30;97022.59;;;31.05;56.43
3590;BME280;1809;48.470;9.226;2022-07-31T11:30:03;97022.06;;;30.63;58.50
3590;BME280;1809;48.470;9.226;2022-07-31T11:32:28;97017.63;;;30.43;59.50
3590;BME280;1809;48.470;9.226;2022-07-31T11:34:55;97016.97;;;30.58;58.71
3590;BME280;1809;48.470;9.226;2022-07-31T11:37:23;97020.13;;;30.30;65.17
3590;BME280;1809;48.470;9.226;2022-07-31T11:39:50;97017.25;;;30.41;65.06
3590;BME280;1809;48.470;9.226;2022-07-31T11:42:17;97017.25;;;30.67;64.05
3590;BME280;1809;48.470;9.226;2022-07-31T11:44:43;97008.47;;;30.99;56.60
3590;BME280;1809;48.470;9.226;2022-07-31T11:47:09;97016.38;;;31.20;58.35
3590;BME280;1809;48.470;9.226;2022-07-31T11:49:34;97011.75;;;31.60;54.07
3590;BME280;1809;48.470;9.226;2022-07-31T11:52:06;97004.94;;;31.84;52.90
3590;BME280;1809;48.470;9.226;2022-07-31T11:54:32;97003.16;;;31.94;53.18
3590;BME280;1809;48.470;9.226;2022-07-31T11:56:58;96998.78;;;32.16;52.73
3590;BME280;1809;48.470;9.226;2022-07-31T11:59:35;96995.72;;;32.11;50.21
3590;BME280;1809;48.470;9.226;2022-07-31T12:02:08;96997.94;;;31.37;60.77
3590;BME280;1809;48.470;9.226;2022-07-31T12:04:35;96990.38;;;31.18;52.89
3590;BME280;1809;48.470;9.226;2022-07-31T12:07:02;96982.19;;;30.64;57.18
3590;BME280;1809;48.470;9.226;2022-07-31T12:09:29;96983.78;;;30.35;60.07
3590;BME280;1809;48.470;9.226;2022-07-31T12:11:55;96975.69;;;30.51;58.13
3590;BME280;1809;48.470;9.226;2022-07-31T12:14:37;96979.53;;;30.57;60.66
3590;BME280;1809;48.470;9.226;2022-07-31T12:17:05;96976.06;;;30.76;60.11
3590;BME280;1809;48.470;9.226;2022-07-31T12:19:34;96973.69;;;30.78;56.19
3590;BME280;1809;48.470;9.226;2022-07-31T12:22:00;96978.13;;;30.96;54.49
3590;BME280;1809;48.470;9.226;2022-07-31T12:24:36;96973.97;;;31.30;52.43
3590;BME280;1809;48.470;9.226;2022-07-31T12:27:05;96972.72;;;31.35;51.79
3590;BME280;1809;48.470;9.226;2022-07-31T12:29:36;96969.22;;;31.31;52.05
3590;BME280;1809;48.470;9.226;2022-07-31T12:32:03;96968.59;;;31.43;52.79
3590;BME280;1809;48.470;9.226;2022-07-31T12:34:41;96974.38;;;31.52;53.70
3590;BME280;1809;48.470;9.226;2022-07-31T12:37:11;96968.47;;;31.70;50.29
3590;BME280;1809;48.470;9.226;2022-07-31T12:39:50;96963.66;;;31.93;49.55
3590;BME280;1809;48.470;9.226;2022-07-31T12:42:31;96963.25;;;32.31;46.65
3590;BME280;1809;48.470;9.226;2022-07-31T12:44:59;96955.88;;;32.24;47.07
3590;BME280;1809;48.470;9.226;2022-07-31T12:47:27;96954.56;;;32.29;49.34
3590;BME280;1809;48.470;9.226;2022-07-31T12:49:54;96956.31;;;32.39;47.22
3590;BME280;1809;48.470;9.226;2022-07-31T12:52:20;96953.63;;;32.19;47.86
3590;BME280;1809;48.470;9.226;2022-07-31T12:54:45;96953.03;;;31.72;47.97
3590;BME280;1809;48.470;9.226;2022-07-31T12:57:11;96952.19;;;31.13;50.20
3590;BME280;1809;48.470;9.226;2022-07-31T12:59:36;96936.16;;;31.04;54.29
3590;BME280;1809;48.470;9.226;2022-07-31T13:02:03;96943.97;;;31.09;53.15
3590;BME280;1809;48.470;9.226;2022-07-31T13:04:28;96941.03;;;30.97;52.26
3590;BME280;1809;48.470;9.226;2022-07-31T13:06:53;96934.50;;;30.83;53.34
3590;BME280;1809;48.470;9.226;2022-07-31T13:09:19;96932.66;;;30.54;53.82
3590;BME280;1809;48.470;9.226;2022-07-31T13:11:44;96925.66;;;30.72;54.47
3590;BME280;1809;48.470;9.226;2022-07-31T13:14:10;96923.34;;;30.90;52.12
3590;BME280;1809;48.470;9.226;2022-07-31T13:16:35;96923.91;;;31.25;54.93
3590;BME280;1809;48.470;9.226;2022-07-31T13:19:01;96912.06;;;31.05;51.37
3590;BME280;1809;48.470;9.226;2022-07-31T13:21:26;96906.75;;;31.14;52.91
3590;BME280;1809;48.470;9.226;2022-07-31T13:23:52;96912.56;;;31.00;58.88
3590;BME280;1809;48.470;9.226;2022-07-31T13:26:17;96907.19;;;31.12;54.31